首页
METAR-TAF:

METAR-TAF

机场 :

别尔哥罗德, 俄罗斯

纬度: 50-38-36N, 经度: 036-35-24E, 海拔: 224米

当前天气观测

该预报发布于45分钟前的10:30 UTC
风速2节,风向西北
温度 2°C
湿度 93%
气压 1021 hPa
能見度: 1700
阴天层高于400英尺
轻雾

METAR: UUOB 111030Z 31001MPS 3600 1700E R29/1700N BR OVC004 02/01 Q1021 R29/190057 TEMPO 1000 BR

时间: 14:15 (11:15 UTC)

预报

该预报发布于3小时和15分钟前的08:00 UTC
预报有效从11日的 09点(UTC)到 11日的 18点(UTC)
风速2节,风向多变
能見度: 2100
阴天层高于500英尺
轻雾
短暂存在
从 11日的 09点(UTC)到 11日的 15点(UTC)
能見度: 0500
层高于200英尺
成为
从 11日的 15点(UTC)到 11日的 16点(UTC)
能見度: 0300
层高于200英尺

TAF: UUOB 110800Z 1109/1118 VRB01MPS 2100 BR OVC005 TEMPO 1109/1115 0500 FG VV002 BECMG 1115/1116 0300 FG VV002

超过4000个机场的气象观测和天气预报(METAR&TAF报告)。

可查询的气象台以黄色和红色小点在地图上表示。

将鼠标移到小点上方,可查看气象台名称。

然后点击查看天气观测和预报。

如需切换地图:点击带黑十字的绿色按钮放大地图;点击带横线的绿色按钮缩小地图;或者点击绿色箭头查看邻近地区的地图。


METAR-TAF: